sensor_id;sensor_type;location;lat;lon;timestamp;P1;P2;P0
80946;PMS5003;70403;50.226;8.564;2024-02-15T00:00:59;18.000000;17.000000;
80946;PMS5003;70403;50.226;8.564;2024-02-15T00:05:59;17.000000;17.000000;
80946;PMS5003;70403;50.226;8.564;2024-02-15T00:10:59;15.000000;15.000000;
80946;PMS5003;70403;50.226;8.564;2024-02-15T00:15:59;21.000000;21.000000;
80946;PMS5003;70403;50.226;8.564;2024-02-15T00:20:59;22.000000;21.000000;
80946;PMS5003;70403;50.226;8.564;2024-02-15T00:25:59;24.000000;22.000000;
80946;PMS5003;70403;50.226;8.564;2024-02-15T00:30:59;19.000000;19.000000;
80946;PMS5003;70403;50.226;8.564;2024-02-15T00:35:59;22.000000;22.000000;
80946;PMS5003;70403;50.226;8.564;2024-02-15T00:40:59;21.000000;21.000000;
80946;PMS5003;70403;50.226;8.564;2024-02-15T00:45:59;19.000000;19.000000;
80946;PMS5003;70403;50.226;8.564;2024-02-15T00:50:59;23.000000;22.000000;
80946;PMS5003;70403;50.226;8.564;2024-02-15T00:55:59;23.000000;23.000000;
80946;PMS5003;70403;50.226;8.564;2024-02-15T01:00:59;25.000000;23.000000;
80946;PMS5003;70403;50.226;8.564;2024-02-15T01:05:59;19.000000;19.000000;
80946;PMS5003;70403;50.226;8.564;2024-02-15T01:10:59;25.000000;25.000000;
80946;PMS5003;70403;50.226;8.564;2024-02-15T01:15:59;23.000000;22.000000;
80946;PMS5003;70403;50.226;8.564;2024-02-15T01:20:59;24.000000;24.000000;
80946;PMS5003;70403;50.226;8.564;2024-02-15T01:25:59;23.000000;23.000000;
80946;PMS5003;70403;50.226;8.564;2024-02-15T01:30:59;26.000000;23.000000;
80946;PMS5003;70403;50.226;8.564;2024-02-15T01:35:59;23.000000;22.000000;
80946;PMS5003;70403;50.226;8.564;2024-02-15T01:40:59;23.000000;22.000000;
80946;PMS5003;70403;50.226;8.564;2024-02-15T01:45:59;27.000000;27.000000;
80946;PMS5003;70403;50.226;8.564;2024-02-15T01:50:59;30.000000;30.000000;
80946;PMS5003;70403;50.226;8.564;2024-02-15T01:55:59;26.000000;24.000000;
80946;PMS5003;70403;50.226;8.564;2024-02-15T02:00:59;24.000000;23.000000;
80946;PMS5003;70403;50.226;8.564;2024-02-15T02:05:59;22.000000;22.000000;
80946;PMS5003;70403;50.226;8.564;2024-02-15T02:10:59;28.000000;24.000000;
80946;PMS5003;70403;50.226;8.564;2024-02-15T02:15:59;29.000000;27.000000;
80946;PMS5003;70403;50.226;8.564;2024-02-15T02:20:59;29.000000;27.000000;
80946;PMS5003;70403;50.226;8.564;2024-02-15T02:25:59;26.000000;25.000000;
80946;PMS5003;70403;50.226;8.564;2024-02-15T02:30:59;27.000000;27.000000;
80946;PMS5003;70403;50.226;8.564;2024-02-15T02:35:59;22.000000;22.000000;
80946;PMS5003;70403;50.226;8.564;2024-02-15T02:40:59;22.000000;20.000000;
80946;PMS5003;70403;50.226;8.564;2024-02-15T02:45:59;24.000000;24.000000;
80946;PMS5003;70403;50.226;8.564;2024-02-15T02:50:59;24.000000;23.000000;
80946;PMS5003;70403;50.226;8.564;2024-02-15T02:55:59;26.000000;26.000000;
80946;PMS5003;70403;50.226;8.564;2024-02-15T03:00:59;24.000000;24.000000;
80946;PMS5003;70403;50.226;8.564;2024-02-15T03:05:59;27.000000;27.000000;
80946;PMS5003;70403;50.226;8.564;2024-02-15T03:10:59;26.000000;24.000000;
80946;PMS5003;70403;50.226;8.564;2024-02-15T03:15:59;34.000000;32.000000;
80946;PMS5003;70403;50.226;8.564;2024-02-15T03:20:59;24.000000;24.000000;
80946;PMS5003;70403;50.226;8.564;2024-02-15T03:26:01;26.000000;24.000000;
80946;PMS5003;70403;50.226;8.564;2024-02-15T03:30:59;30.000000;27.000000;
80946;PMS5003;70403;50.226;8.564;2024-02-15T03:35:59;28.000000;26.000000;
80946;PMS5003;70403;50.226;8.564;2024-02-15T03:40:59;28.000000;27.000000;
80946;PMS5003;70403;50.226;8.564;2024-02-15T03:45:59;23.000000;22.000000;
80946;PMS5003;70403;50.226;8.564;2024-02-15T03:50:59;22.000000;20.000000;
80946;PMS5003;70403;50.226;8.564;2024-02-15T03:55:59;24.000000;23.000000;
80946;PMS5003;70403;50.226;8.564;2024-02-15T04:00:59;26.000000;24.000000;
80946;PMS5003;70403;50.226;8.564;2024-02-15T04:05:59;23.000000;23.000000;
80946;PMS5003;70403;50.226;8.564;2024-02-15T04:10:59;22.000000;22.000000;
80946;PMS5003;70403;50.226;8.564;2024-02-15T04:15:59;20.000000;19.000000;
80946;PMS5003;70403;50.226;8.564;2024-02-15T04:20:59;23.000000;23.000000;
80946;PMS5003;70403;50.226;8.564;2024-02-15T04:25:59;24.000000;24.000000;
80946;PMS5003;70403;50.226;8.564;2024-02-15T04:30:59;27.000000;26.000000;
80946;PMS5003;70403;50.226;8.564;2024-02-15T04:35:59;21.000000;21.000000;
80946;PMS5003;70403;50.226;8.564;2024-02-15T04:40:59;27.000000;26.000000;
80946;PMS5003;70403;50.226;8.564;2024-02-15T04:45:59;28.000000;27.000000;
80946;PMS5003;70403;50.226;8.564;2024-02-15T04:50:59;22.000000;22.000000;
80946;PMS5003;70403;50.226;8.564;2024-02-15T04:55:59;24.000000;24.000000;
80946;PMS5003;70403;50.226;8.564;2024-02-15T05:00:59;26.000000;26.000000;
80946;PMS5003;70403;50.226;8.564;2024-02-15T05:05:59;22.000000;22.000000;
80946;PMS5003;70403;50.226;8.564;2024-02-15T05:10:59;24.000000;22.000000;
80946;PMS5003;70403;50.226;8.564;2024-02-15T05:15:59;26.000000;24.000000;
80946;PMS5003;70403;50.226;8.564;2024-02-15T05:20:59;31.000000;30.000000;
80946;PMS5003;70403;50.226;8.564;2024-02-15T05:25:59;21.000000;21.000000;
80946;PMS5003;70403;50.226;8.564;2024-02-15T05:35:05;24.000000;23.000000;
80946;PMS5003;70403;50.226;8.564;2024-02-15T05:40:05;27.000000;26.000000;
80946;PMS5003;70403;50.226;8.564;2024-02-15T05:49:37;21.000000;20.000000;
80946;PMS5003;70403;50.226;8.564;2024-02-15T05:54:37;26.000000;26.000000;
80946;PMS5003;70403;50.226;8.564;2024-02-15T05:59:37;23.000000;23.000000;
80946;PMS5003;70403;50.226;8.564;2024-02-15T06:04:37;23.000000;22.000000;
80946;PMS5003;70403;50.226;8.564;2024-02-15T06:09:37;23.000000;21.000000;
80946;PMS5003;70403;50.226;8.564;2024-02-15T06:14:37;20.000000;20.000000;
80946;PMS5003;70403;50.226;8.564;2024-02-15T06:19:37;23.000000;19.000000;
80946;PMS5003;70403;50.226;8.564;2024-02-15T06:24:37;20.000000;20.000000;
80946;PMS5003;70403;50.226;8.564;2024-02-15T06:29:37;23.000000;22.000000;
80946;PMS5003;70403;50.226;8.564;2024-02-15T06:41:19;26.000000;25.000000;
80946;PMS5003;70403;50.226;8.564;2024-02-15T06:53:09;nan;nan;
80946;PMS5003;70403;50.226;8.564;2024-02-15T07:02:47;30.000000;29.000000;
80946;PMS5003;70403;50.226;8.564;2024-02-15T07:07:47;21.000000;21.000000;
80946;PMS5003;70403;50.226;8.564;2024-02-15T07:12:47;25.000000;25.000000;
80946;PMS5003;70403;50.226;8.564;2024-02-15T07:17:47;22.000000;21.000000;
80946;PMS5003;70403;50.226;8.564;2024-02-15T07:22:47;18.000000;18.000000;
80946;PMS5003;70403;50.226;8.564;2024-02-15T07:27:47;23.000000;23.000000;
80946;PMS5003;70403;50.226;8.564;2024-02-15T07:32:47;19.000000;18.000000;
80946;PMS5003;70403;50.226;8.564;2024-02-15T07:41:28;21.000000;19.000000;
80946;PMS5003;70403;50.226;8.564;2024-02-15T07:46:28;17.000000;17.000000;
80946;PMS5003;70403;50.226;8.564;2024-02-15T07:51:28;20.000000;19.000000;
80946;PMS5003;70403;50.226;8.564;2024-02-15T07:56:28;18.000000;18.000000;
80946;PMS5003;70403;50.226;8.564;2024-02-15T08:01:28;19.000000;19.000000;
80946;PMS5003;70403;50.226;8.564;2024-02-15T08:06:28;19.000000;18.000000;
80946;PMS5003;70403;50.226;8.564;2024-02-15T08:11:28;16.000000;16.000000;
80946;PMS5003;70403;50.226;8.564;2024-02-15T08:16:28;16.000000;16.000000;
80946;PMS5003;70403;50.226;8.564;2024-02-15T08:21:28;15.000000;15.000000;
80946;PMS5003;70403;50.226;8.564;2024-02-15T08:26:28;15.000000;15.000000;
80946;PMS5003;70403;50.226;8.564;2024-02-15T08:31:28;16.000000;16.000000;
80946;PMS5003;70403;50.226;8.564;2024-02-15T08:36:29;19.000000;18.000000;
80946;PMS5003;70403;50.226;8.564;2024-02-15T08:41:28;15.000000;15.000000;
80946;PMS5003;70403;50.226;8.564;2024-02-15T08:46:28;19.000000;19.000000;
80946;PMS5003;70403;50.226;8.564;2024-02-15T08:51:28;16.000000;15.000000;
80946;PMS5003;70403;50.226;8.564;2024-02-15T08:56:28;12.000000;12.000000;
80946;PMS5003;70403;50.226;8.564;2024-02-15T09:00:11;18.000000;16.000000;
80946;PMS5003;70403;50.226;8.564;2024-02-15T09:14:22;26.000000;23.000000;
80946;PMS5003;70403;50.226;8.564;2024-02-15T09:19:22;27.000000;26.000000;
80946;PMS5003;70403;50.226;8.564;2024-02-15T09:24:22;25.000000;25.000000;
80946;PMS5003;70403;50.226;8.564;2024-02-15T09:29:22;26.000000;26.000000;
80946;PMS5003;70403;50.226;8.564;2024-02-15T09:34:22;29.000000;28.000000;
80946;PMS5003;70403;50.226;8.564;2024-02-15T09:39:22;22.000000;22.000000;
80946;PMS5003;70403;50.226;8.564;2024-02-15T09:44:22;29.000000;29.000000;
80946;PMS5003;70403;50.226;8.564;2024-02-15T09:49:22;28.000000;26.000000;
80946;PMS5003;70403;50.226;8.564;2024-02-15T09:54:22;31.000000;31.000000;
80946;PMS5003;70403;50.226;8.564;2024-02-15T09:59:22;30.000000;27.000000;
80946;PMS5003;70403;50.226;8.564;2024-02-15T10:04:22;28.000000;28.000000;
80946;PMS5003;70403;50.226;8.564;2024-02-15T10:14:11;27.000000;25.000000;
80946;PMS5003;70403;50.226;8.564;2024-02-15T10:19:10;27.000000;27.000000;
80946;PMS5003;70403;50.226;8.564;2024-02-15T10:24:10;20.000000;20.000000;
80946;PMS5003;70403;50.226;8.564;2024-02-15T10:29:10;22.000000;22.000000;
80946;PMS5003;70403;50.226;8.564;2024-02-15T10:34:10;20.000000;18.000000;
80946;PMS5003;70403;50.226;8.564;2024-02-15T10:39:13;19.000000;19.000000;
80946;PMS5003;70403;50.226;8.564;2024-02-15T10:44:10;22.000000;21.000000;
80946;PMS5003;70403;50.226;8.564;2024-02-15T10:49:10;21.000000;21.000000;
80946;PMS5003;70403;50.226;8.564;2024-02-15T10:54:11;22.000000;22.000000;
80946;PMS5003;70403;50.226;8.564;2024-02-15T10:59:11;19.000000;18.000000;
80946;PMS5003;70403;50.226;8.564;2024-02-15T11:03:01;17.000000;17.000000;
80946;PMS5003;70403;50.226;8.564;2024-02-15T11:11:36;19.000000;18.000000;
80946;PMS5003;70403;50.226;8.564;2024-02-15T11:23:38;nan;nan;
80946;PMS5003;70403;50.226;8.564;2024-02-15T11:32:39;18.000000;18.000000;
80946;PMS5003;70403;50.226;8.564;2024-02-15T11:45:16;nan;nan;
80946;PMS5003;70403;50.226;8.564;2024-02-15T11:58:40;19.000000;19.000000;
80946;PMS5003;70403;50.226;8.564;2024-02-15T12:08:06;16.000000;16.000000;
80946;PMS5003;70403;50.226;8.564;2024-02-15T12:13:05;19.000000;16.000000;
80946;PMS5003;70403;50.226;8.564;2024-02-15T12:21:14;11.000000;11.000000;
80946;PMS5003;70403;50.226;8.564;2024-02-15T12:30:17;8.000000;8.000000;
80946;PMS5003;70403;50.226;8.564;2024-02-15T12:35:17;9.000000;9.000000;
80946;PMS5003;70403;50.226;8.564;2024-02-15T12:40:17;7.000000;7.000000;
80946;PMS5003;70403;50.226;8.564;2024-02-15T12:45:17;7.000000;7.000000;
80946;PMS5003;70403;50.226;8.564;2024-02-15T12:50:17;7.000000;7.000000;
80946;PMS5003;70403;50.226;8.564;2024-02-15T12:55:17;7.000000;7.000000;
80946;PMS5003;70403;50.226;8.564;2024-02-15T13:00:18;7.000000;7.000000;
80946;PMS5003;70403;50.226;8.564;2024-02-15T13:05:17;7.000000;5.000000;
80946;PMS5003;70403;50.226;8.564;2024-02-15T13:10:17;7.000000;7.000000;
80946;PMS5003;70403;50.226;8.564;2024-02-15T13:15:17;5.000000;5.000000;
80946;PMS5003;70403;50.226;8.564;2024-02-15T13:20:17;4.000000;4.000000;
80946;PMS5003;70403;50.226;8.564;2024-02-15T13:25:17;4.000000;4.000000;
80946;PMS5003;70403;50.226;8.564;2024-02-15T13:30:17;4.000000;4.000000;
80946;PMS5003;70403;50.226;8.564;2024-02-15T13:35:17;5.000000;5.000000;
80946;PMS5003;70403;50.226;8.564;2024-02-15T13:40:17;4.000000;4.000000;
80946;PMS5003;70403;50.226;8.564;2024-02-15T13:45:17;4.000000;4.000000;
80946;PMS5003;70403;50.226;8.564;2024-02-15T13:50:17;5.000000;5.000000;
80946;PMS5003;70403;50.226;8.564;2024-02-15T13:55:17;4.000000;4.000000;
80946;PMS5003;70403;50.226;8.564;2024-02-15T14:00:17;5.000000;5.000000;
80946;PMS5003;70403;50.226;8.564;2024-02-15T14:05:17;7.000000;7.000000;
80946;PMS5003;70403;50.226;8.564;2024-02-15T14:10:17;7.000000;5.000000;
80946;PMS5003;70403;50.226;8.564;2024-02-15T14:15:17;4.000000;4.000000;
80946;PMS5003;70403;50.226;8.564;2024-02-15T14:20:17;5.000000;4.000000;
80946;PMS5003;70403;50.226;8.564;2024-02-15T14:25:17;3.000000;3.000000;
80946;PMS5003;70403;50.226;8.564;2024-02-15T14:30:17;3.000000;3.000000;
80946;PMS5003;70403;50.226;8.564;2024-02-15T14:35:17;3.000000;3.000000;
80946;PMS5003;70403;50.226;8.564;2024-02-15T14:40:17;4.000000;4.000000;
80946;PMS5003;70403;50.226;8.564;2024-02-15T14:45:17;8.000000;8.000000;
80946;PMS5003;70403;50.226;8.564;2024-02-15T14:50:17;4.000000;4.000000;
80946;PMS5003;70403;50.226;8.564;2024-02-15T14:55:17;4.000000;4.000000;
80946;PMS5003;70403;50.226;8.564;2024-02-15T15:02:10;nan;nan;
80946;PMS5003;70403;50.226;8.564;2024-02-15T15:50:59;4.000000;4.000000;
80946;PMS5003;70403;50.226;8.564;2024-02-15T15:55:59;3.000000;3.000000;
80946;PMS5003;70403;50.226;8.564;2024-02-15T16:00:59;4.000000;4.000000;
80946;PMS5003;70403;50.226;8.564;2024-02-15T16:05:59;8.000000;8.000000;
80946;PMS5003;70403;50.226;8.564;2024-02-15T16:10:59;6.000000;6.000000;
80946;PMS5003;70403;50.226;8.564;2024-02-15T16:15:59;3.000000;3.000000;
80946;PMS5003;70403;50.226;8.564;2024-02-15T16:20:59;12.000000;12.000000;
80946;PMS5003;70403;50.226;8.564;2024-02-15T16:25:59;50.000000;42.000000;
80946;PMS5003;70403;50.226;8.564;2024-02-15T16:30:59;30.000000;30.000000;
80946;PMS5003;70403;50.226;8.564;2024-02-15T16:35:59;19.000000;18.000000;
80946;PMS5003;70403;50.226;8.564;2024-02-15T16:40:59;4.000000;4.000000;
80946;PMS5003;70403;50.226;8.564;2024-02-15T16:45:59;32.000000;32.000000;
80946;PMS5003;70403;50.226;8.564;2024-02-15T16:50:59;21.000000;21.000000;
80946;PMS5003;70403;50.226;8.564;2024-02-15T16:55:59;7.000000;7.000000;
80946;PMS5003;70403;50.226;8.564;2024-02-15T17:00:59;4.000000;4.000000;
80946;PMS5003;70403;50.226;8.564;2024-02-15T17:05:59;12.000000;12.000000;
80946;PMS5003;70403;50.226;8.564;2024-02-15T17:10:59;8.000000;8.000000;
80946;PMS5003;70403;50.226;8.564;2024-02-15T17:15:59;11.000000;11.000000;
80946;PMS5003;70403;50.226;8.564;2024-02-15T17:20:59;11.000000;11.000000;
80946;PMS5003;70403;50.226;8.564;2024-02-15T17:25:59;7.000000;7.000000;
80946;PMS5003;70403;50.226;8.564;2024-02-15T17:30:59;7.000000;7.000000;
80946;PMS5003;70403;50.226;8.564;2024-02-15T17:35:59;6.000000;6.000000;
80946;PMS5003;70403;50.226;8.564;2024-02-15T17:40:59;7.000000;7.000000;
80946;PMS5003;70403;50.226;8.564;2024-02-15T17:45:59;4.000000;4.000000;
80946;PMS5003;70403;50.226;8.564;2024-02-15T17:50:59;7.000000;7.000000;
80946;PMS5003;70403;50.226;8.564;2024-02-15T17:55:59;7.000000;7.000000;
80946;PMS5003;70403;50.226;8.564;2024-02-15T18:00:59;7.000000;6.000000;
80946;PMS5003;70403;50.226;8.564;2024-02-15T18:05:59;5.000000;5.000000;
80946;PMS5003;70403;50.226;8.564;2024-02-15T18:10:59;4.000000;4.000000;
80946;PMS5003;70403;50.226;8.564;2024-02-15T18:15:59;5.000000;5.000000;
80946;PMS5003;70403;50.226;8.564;2024-02-15T18:23:17;nan;nan;
80946;PMS5003;70403;50.226;8.564;2024-02-15T18:49:17;5.000000;5.000000;
80946;PMS5003;70403;50.226;8.564;2024-02-15T18:54:17;7.000000;7.000000;
80946;PMS5003;70403;50.226;8.564;2024-02-15T18:59:17;6.000000;6.000000;
80946;PMS5003;70403;50.226;8.564;2024-02-15T19:04:17;3.000000;3.000000;
80946;PMS5003;70403;50.226;8.564;2024-02-15T19:09:17;8.000000;8.000000;
80946;PMS5003;70403;50.226;8.564;2024-02-15T19:14:17;16.000000;13.000000;
80946;PMS5003;70403;50.226;8.564;2024-02-15T19:19:17;46.000000;42.000000;
80946;PMS5003;70403;50.226;8.564;2024-02-15T19:24:17;67.000000;55.000000;
80946;PMS5003;70403;50.226;8.564;2024-02-15T19:29:17;39.000000;37.000000;
80946;PMS5003;70403;50.226;8.564;2024-02-15T19:34:17;16.000000;16.000000;
80946;PMS5003;70403;50.226;8.564;2024-02-15T19:39:17;7.000000;7.000000;
80946;PMS5003;70403;50.226;8.564;2024-02-15T19:44:17;6.000000;6.000000;
80946;PMS5003;70403;50.226;8.564;2024-02-15T19:49:17;6.000000;6.000000;
80946;PMS5003;70403;50.226;8.564;2024-02-15T19:54:17;5.000000;5.000000;
80946;PMS5003;70403;50.226;8.564;2024-02-15T19:59:17;5.000000;5.000000;
80946;PMS5003;70403;50.226;8.564;2024-02-15T20:04:17;7.000000;7.000000;
80946;PMS5003;70403;50.226;8.564;2024-02-15T20:11:52;nan;nan;
80946;PMS5003;70403;50.226;8.564;2024-02-15T20:21:00;5.000000;3.000000;
80946;PMS5003;70403;50.226;8.564;2024-02-15T20:26:00;6.000000;6.000000;
80946;PMS5003;70403;50.226;8.564;2024-02-15T20:31:00;5.000000;5.000000;
80946;PMS5003;70403;50.226;8.564;2024-02-15T20:36:01;5.000000;5.000000;
80946;PMS5003;70403;50.226;8.564;2024-02-15T20:43:00;nan;nan;
80946;PMS5003;70403;50.226;8.564;2024-02-15T20:52:39;7.000000;7.000000;
80946;PMS5003;70403;50.226;8.564;2024-02-15T20:57:40;9.000000;9.000000;
80946;PMS5003;70403;50.226;8.564;2024-02-15T21:02:39;5.000000;5.000000;
80946;PMS5003;70403;50.226;8.564;2024-02-15T21:07:39;5.000000;5.000000;
80946;PMS5003;70403;50.226;8.564;2024-02-15T21:12:39;6.000000;6.000000;
80946;PMS5003;70403;50.226;8.564;2024-02-15T21:20:56;6.000000;6.000000;
80946;PMS5003;70403;50.226;8.564;2024-02-15T21:29:33;5.000000;5.000000;
80946;PMS5003;70403;50.226;8.564;2024-02-15T21:34:33;3.000000;3.000000;
80946;PMS5003;70403;50.226;8.564;2024-02-15T21:39:33;5.000000;5.000000;
80946;PMS5003;70403;50.226;8.564;2024-02-15T21:48:21;4.000000;4.000000;
80946;PMS5003;70403;50.226;8.564;2024-02-15T21:53:21;5.000000;5.000000;
80946;PMS5003;70403;50.226;8.564;2024-02-15T21:58:21;5.000000;5.000000;
80946;PMS5003;70403;50.226;8.564;2024-02-15T22:03:21;5.000000;5.000000;
80946;PMS5003;70403;50.226;8.564;2024-02-15T22:08:21;7.000000;7.000000;
80946;PMS5003;70403;50.226;8.564;2024-02-15T22:16:32;6.000000;6.000000;
80946;PMS5003;70403;50.226;8.564;2024-02-15T22:21:32;3.000000;3.000000;
80946;PMS5003;70403;50.226;8.564;2024-02-15T22:26:32;5.000000;5.000000;
80946;PMS5003;70403;50.226;8.564;2024-02-15T22:31:32;7.000000;7.000000;
80946;PMS5003;70403;50.226;8.564;2024-02-15T22:36:32;6.000000;5.000000;
80946;PMS5003;70403;50.226;8.564;2024-02-15T22:41:32;5.000000;5.000000;
80946;PMS5003;70403;50.226;8.564;2024-02-15T22:50:19;5.000000;5.000000;
80946;PMS5003;70403;50.226;8.564;2024-02-15T22:57:22;9.000000;9.000000;
80946;PMS5003;70403;50.226;8.564;2024-02-15T23:02:22;6.000000;6.000000;
80946;PMS5003;70403;50.226;8.564;2024-02-15T23:07:22;4.000000;4.000000;
80946;PMS5003;70403;50.226;8.564;2024-02-15T23:12:22;6.000000;6.000000;
80946;PMS5003;70403;50.226;8.564;2024-02-15T23:17:22;5.000000;5.000000;
80946;PMS5003;70403;50.226;8.564;2024-02-15T23:22:22;6.000000;6.000000;
80946;PMS5003;70403;50.226;8.564;2024-02-15T23:27:22;14.000000;14.000000;
80946;PMS5003;70403;50.226;8.564;2024-02-15T23:32:22;6.000000;6.000000;
80946;PMS5003;70403;50.226;8.564;2024-02-15T23:37:22;5.000000;5.000000;
80946;PMS5003;70403;50.226;8.564;2024-02-15T23:42:22;6.000000;6.000000;
80946;PMS5003;70403;50.226;8.564;2024-02-15T23:47:22;8.000000;8.000000;
80946;PMS5003;70403;50.226;8.564;2024-02-15T23:52:22;5.000000;5.000000;
80946;PMS5003;70403;50.226;8.564;2024-02-15T23:57:22;8.000000;8.000000;
